createdAt,value
2023-01-09T00:02:41.808Z,998.61
2023-01-09T00:07:41.893Z,998.49
2023-01-09T00:12:41.218Z,998.19
2023-01-09T00:17:40.594Z,998.18
2023-01-09T00:22:39.709Z,998.09
2023-01-09T00:27:38.961Z,997.95
2023-01-09T00:32:38.257Z,997.96
2023-01-09T00:37:36.603Z,998.18
2023-01-09T00:42:36.713Z,998.38
2023-01-09T00:47:36.060Z,998.50
2023-01-09T00:52:37.230Z,998.49
2023-01-09T00:57:33.365Z,998.47
2023-01-09T01:02:32.547Z,998.37
2023-01-09T01:07:31.785Z,998.30
2023-01-09T01:12:31.067Z,998.17
2023-01-09T01:17:30.361Z,998.20
2023-01-09T01:22:29.655Z,997.93
2023-01-09T01:27:28.976Z,998.05
2023-01-09T01:32:28.250Z,998.19
2023-01-09T01:37:26.508Z,998.09
2023-01-09T01:42:28.792Z,998.30
2023-01-09T01:47:26.041Z,998.27
2023-01-09T01:52:25.341Z,998.35
2023-01-09T01:57:25.635Z,998.45
2023-01-09T02:02:26.023Z,998.36
2023-01-09T02:07:24.160Z,998.39
2023-01-09T02:12:22.282Z,998.38
2023-01-09T02:17:21.404Z,998.25
2023-01-09T02:22:20.721Z,998.21
2023-01-09T02:27:20.027Z,998.62
2023-01-09T02:32:19.358Z,998.42
2023-01-09T02:37:19.668Z,998.34
2023-01-09T02:42:17.989Z,998.34
2023-01-09T02:47:18.305Z,998.43
2023-01-09T02:52:17.580Z,998.61
2023-01-09T02:57:16.863Z,998.89
2023-01-09T03:02:16.158Z,999.04
2023-01-09T03:07:15.466Z,999.32
2023-01-09T03:12:13.760Z,999.59
2023-01-09T03:17:12.052Z,999.71
2023-01-09T03:22:13.355Z,999.57
2023-01-09T03:27:13.629Z,999.94
2023-01-09T03:32:10.933Z,999.97
2023-01-09T03:37:10.261Z,1000.11
2023-01-09T03:42:09.571Z,1000.32
2023-01-09T03:47:09.913Z,1000.57
2023-01-09T03:52:10.254Z,1000.77
2023-01-09T03:57:10.388Z,1001.11
2023-01-09T04:02:06.624Z,1001.54
2023-01-09T04:07:07.810Z,1001.62
2023-01-09T04:12:07.161Z,1001.89
2023-01-09T04:17:04.281Z,1002.08
2023-01-09T04:22:04.608Z,1002.01
2023-01-09T04:27:02.879Z,1001.84
2023-01-09T04:32:04.051Z,1002.20
2023-01-09T04:37:03.219Z,1001.92
2023-01-09T04:42:00.388Z,1001.90
2023-01-09T04:46:59.587Z,1001.83
2023-01-09T04:52:00.793Z,1001.80
2023-01-09T04:56:57.962Z,1002.00
2023-01-09T05:01:57.259Z,1001.87
2023-01-09T05:06:56.264Z,1002.31
2023-01-09T05:11:55.458Z,1002.24
2023-01-09T05:16:54.628Z,1002.29
2023-01-09T05:21:53.807Z,1002.36
2023-01-09T05:26:54.964Z,1002.52
2023-01-09T05:31:52.141Z,1002.46
2023-01-09T05:36:51.367Z,1002.64
2023-01-09T05:41:50.543Z,1002.61
2023-01-09T05:46:49.679Z,1002.73
2023-01-09T05:51:50.894Z,1002.89
2023-01-09T05:56:48.050Z,1003.01
2023-01-09T06:01:46.278Z,1003.27
2023-01-09T06:06:47.492Z,1003.49
2023-01-09T06:11:45.676Z,1003.27
2023-01-09T06:16:45.854Z,1003.42
2023-01-09T06:21:45.011Z,1003.64
2023-01-09T06:26:43.164Z,1003.62
2023-01-09T06:31:42.339Z,1003.54
2023-01-09T06:36:41.529Z,1003.56
2023-01-09T06:41:40.683Z,1003.65
2023-01-09T06:46:39.865Z,1003.78
2023-01-09T06:51:40.037Z,1003.82
2023-01-09T06:56:38.211Z,1003.86
2023-01-09T07:01:37.556Z,1003.82
2023-01-09T07:06:36.563Z,1003.95
2023-01-09T07:11:35.736Z,1003.95
2023-01-09T07:16:34.920Z,1003.98
2023-01-09T07:21:34.082Z,1004.05
2023-01-09T07:26:33.323Z,1004.07
2023-01-09T07:31:32.601Z,1004.23
2023-01-09T07:36:30.817Z,1004.12
2023-01-09T07:41:33.039Z,1003.99
2023-01-09T07:46:31.326Z,1003.86
2023-01-09T07:51:29.501Z,1004.03
2023-01-09T07:56:29.694Z,1004.02
2023-01-09T08:01:28.925Z,1003.96
2023-01-09T08:06:26.123Z,1003.78
2023-01-09T08:11:27.321Z,1003.85
2023-01-09T08:16:25.501Z,1003.90
2023-01-09T08:21:24.686Z,1003.98
2023-01-09T08:26:22.977Z,1003.85
2023-01-09T08:31:23.242Z,1003.90
2023-01-09T08:36:22.511Z,1003.73
2023-01-09T08:41:20.716Z,1003.74
2023-01-09T08:46:21.097Z,1003.48
2023-01-09T08:51:21.151Z,1003.71
2023-01-09T08:56:20.325Z,1003.76
2023-01-09T09:01:18.547Z,1003.59
2023-01-09T09:06:19.735Z,1003.60
2023-01-09T09:11:16.959Z,1003.59
2023-01-09T09:16:17.192Z,1003.47
2023-01-09T09:21:16.467Z,1003.51
2023-01-09T09:26:15.697Z,1003.55
2023-01-09T09:31:13.958Z,1003.50
2023-01-09T09:36:14.293Z,1003.43
2023-01-09T09:41:13.550Z,1003.51
2023-01-09T09:46:12.797Z,1003.47
2023-01-09T09:51:10.995Z,1003.31
2023-01-09T09:56:11.247Z,1003.34
2023-01-09T10:01:11.426Z,1003.34
2023-01-09T10:06:09.602Z,1003.15
2023-01-09T10:11:07.797Z,1003.24
2023-01-09T10:16:07.051Z,1003.28
2023-01-09T10:21:06.227Z,1003.18
2023-01-09T10:26:05.435Z,1003.08
2023-01-09T10:31:04.658Z,1003.13
2023-01-09T10:36:04.834Z,1003.00
2023-01-09T10:41:02.992Z,1002.94
2023-01-09T10:46:01.169Z,1002.93
2023-01-09T10:51:00.476Z,1002.78
2023-01-09T10:56:00.811Z,1002.77
2023-01-09T11:00:59.874Z,1002.74
2023-01-09T11:06:01.052Z,1002.70
2023-01-09T11:10:58.236Z,1002.59
2023-01-09T11:15:57.467Z,1002.70
2023-01-09T11:20:57.652Z,1002.70
2023-01-09T11:25:56.855Z,1002.61
2023-01-09T11:30:57.061Z,1002.67
2023-01-09T11:35:55.324Z,1002.72
2023-01-09T11:40:53.545Z,1002.58
2023-01-09T11:46:00.471Z,1002.61
2023-01-09T11:50:53.018Z,1002.46
2023-01-09T11:55:51.232Z,1002.65
2023-01-09T12:00:51.431Z,1002.53
2023-01-09T12:05:50.673Z,1002.56
2023-01-09T12:10:48.867Z,1002.57
2023-01-09T12:15:48.045Z,1002.52
2023-01-09T12:20:48.236Z,1002.46
2023-01-09T12:25:46.426Z,1002.35
2023-01-09T12:30:46.608Z,1002.39
2023-01-09T12:35:44.816Z,1002.41
2023-01-09T12:40:43.087Z,1002.40
2023-01-09T12:45:43.434Z,1002.62
2023-01-09T12:50:43.677Z,1002.70
2023-01-09T12:55:41.915Z,1002.63
2023-01-09T13:00:41.269Z,1002.75
2023-01-09T13:05:41.247Z,1002.96
2023-01-09T13:10:39.503Z,1003.10
2023-01-09T13:15:39.697Z,1003.22
2023-01-09T13:20:37.871Z,1003.24
2023-01-09T13:25:38.059Z,1003.31
2023-01-09T13:30:37.208Z,1003.33
2023-01-09T13:35:35.375Z,1003.44
2023-01-09T13:40:35.605Z,1003.46
2023-01-09T13:45:34.772Z,1003.48
2023-01-09T13:50:32.923Z,1003.51
2023-01-09T13:55:33.096Z,1003.61
2023-01-09T14:00:31.250Z,1003.66
2023-01-09T14:05:31.439Z,1003.69
2023-01-09T14:10:30.619Z,1003.79
2023-01-09T14:15:27.829Z,1003.68
2023-01-09T14:20:29.032Z,1003.69
2023-01-09T14:25:28.192Z,1003.75
2023-01-09T14:30:26.402Z,1003.76
2023-01-09T14:35:26.578Z,1003.84
2023-01-09T14:40:26.757Z,1003.87
2023-01-09T14:45:23.963Z,1003.96
2023-01-09T14:50:22.170Z,1003.92
2023-01-09T14:55:23.422Z,1004.09
2023-01-09T15:00:21.595Z,1004.14
2023-01-09T15:05:20.757Z,1004.14
2023-01-09T15:10:21.991Z,1004.30
2023-01-09T15:15:20.184Z,1004.36
2023-01-09T15:20:19.353Z,1004.32
2023-01-09T15:25:20.778Z,1004.34
2023-01-09T15:30:16.782Z,1004.39
2023-01-09T15:35:15.970Z,1004.30
2023-01-09T15:40:15.146Z,1004.41
2023-01-09T15:45:17.313Z,1004.64
2023-01-09T15:50:13.465Z,1004.61
2023-01-09T15:55:12.640Z,1004.74
2023-01-09T16:00:12.801Z,1004.87
2023-01-09T16:05:10.960Z,1005.12
2023-01-09T16:10:11.146Z,1005.26
2023-01-09T16:15:09.332Z,1005.31
2023-01-09T16:20:09.511Z,1005.42
2023-01-09T16:25:07.694Z,1005.39
2023-01-09T16:30:07.896Z,1005.35
2023-01-09T16:35:06.370Z,1005.59
2023-01-09T16:40:04.294Z,1005.62
2023-01-09T16:45:06.512Z,1005.69
2023-01-09T16:50:03.734Z,1005.66
2023-01-09T16:55:02.918Z,1005.77
2023-01-09T17:00:02.112Z,1005.82
2023-01-09T17:05:01.337Z,1005.80
2023-01-09T17:10:00.577Z,1005.81
2023-01-09T17:14:59.755Z,1005.82
2023-01-09T17:19:58.979Z,1005.87
2023-01-09T17:25:00.157Z,1006.17
2023-01-09T17:29:59.322Z,1006.32
2023-01-09T17:34:57.598Z,1006.57
2023-01-09T17:39:56.792Z,1006.51
2023-01-09T17:44:55.963Z,1006.52
2023-01-09T17:49:55.147Z,1006.60
2023-01-09T17:54:53.325Z,1006.68
2023-01-09T17:59:54.519Z,1006.84
2023-01-09T18:04:51.770Z,1006.77
2023-01-09T18:09:50.999Z,1006.79
2023-01-09T18:14:50.375Z,1006.87
2023-01-09T18:19:49.483Z,1007.00
2023-01-09T18:24:49.901Z,1006.95
2023-01-09T18:29:49.187Z,1007.05
2023-01-09T18:34:49.138Z,1007.12
2023-01-09T18:39:46.699Z,1007.16
2023-01-09T18:44:45.607Z,1007.14
2023-01-09T18:49:45.858Z,1007.36
2023-01-09T18:54:44.049Z,1007.50
2023-01-09T18:59:43.239Z,1007.70
2023-01-09T19:04:43.783Z,1007.80
2023-01-09T19:09:41.629Z,1007.80
2023-01-09T19:14:43.121Z,1007.86
2023-01-09T19:19:40.268Z,1007.77
2023-01-09T19:24:40.322Z,1007.91
2023-01-09T19:29:39.513Z,1007.86
2023-01-09T19:34:38.018Z,1007.79
2023-01-09T19:39:37.945Z,1007.83
2023-01-09T19:44:37.121Z,1007.94
2023-01-09T19:49:34.323Z,1007.98
2023-01-09T19:54:36.520Z,1008.22
2023-01-09T19:59:36.221Z,1008.17
2023-01-09T20:04:33.280Z,1008.36
2023-01-09T20:09:34.348Z,1008.52
2023-01-09T20:14:30.609Z,1008.55
2023-01-09T20:19:30.883Z,1008.72
2023-01-09T20:24:30.079Z,1008.70
2023-01-09T20:29:29.291Z,1008.64
2023-01-09T20:34:31.488Z,1008.77
2023-01-09T20:39:27.749Z,1008.77
2023-01-09T20:44:27.960Z,1008.77
2023-01-09T20:49:27.368Z,1008.80
2023-01-09T20:54:26.367Z,1009.00
2023-01-09T20:59:25.663Z,1009.04
2023-01-09T21:04:23.916Z,1009.20
2023-01-09T21:09:23.047Z,1009.16
2023-01-09T21:14:23.233Z,1009.20
2023-01-09T21:19:22.914Z,1009.18
2023-01-09T21:24:21.691Z,1009.20
2023-01-09T21:29:19.859Z,1009.25
2023-01-09T21:34:20.031Z,1009.37
2023-01-09T21:39:18.201Z,1009.32
2023-01-09T21:44:18.355Z,1009.35
2023-01-09T21:49:16.536Z,1009.37
2023-01-09T21:54:15.725Z,1009.24
2023-01-09T21:59:15.899Z,1009.43
2023-01-09T22:04:14.110Z,1009.50
2023-01-09T22:09:14.338Z,1009.50
2023-01-09T22:14:13.529Z,1009.65
2023-01-09T22:19:11.729Z,1009.60
2023-01-09T22:24:11.937Z,1009.70
2023-01-09T22:29:10.101Z,1009.70
2023-01-09T22:34:08.342Z,1009.73
2023-01-09T22:39:10.484Z,1009.71
2023-01-09T22:44:08.654Z,1009.81
2023-01-09T22:49:06.849Z,1009.78
2023-01-09T22:54:06.036Z,1009.95
2023-01-09T22:59:05.200Z,1010.00
2023-01-09T23:04:04.366Z,1009.93
2023-01-09T23:09:03.545Z,1010.05
2023-01-09T23:14:03.731Z,1009.97
2023-01-09T23:19:01.896Z,1010.27
2023-01-09T23:24:02.094Z,1010.27
2023-01-09T23:29:01.283Z,1010.31
2023-01-09T23:33:59.471Z,1010.33
2023-01-09T23:38:58.719Z,1010.38
2023-01-09T23:43:57.899Z,1010.41
2023-01-09T23:48:57.119Z,1010.32
2023-01-09T23:53:56.316Z,1010.48
2023-01-09T23:58:55.524Z,1010.56
